| time (UTC) | temp C | wind direction | speed KPH | gust KPH | rain 1hr cm | rain 24hr cm | rain mn cm | humidity % | barometer mb |
| 20260906113114 | 21 | 19 | 0.0 | 0.0 | 0.00 | 0.03 | 0.00 | 94 | 1013.5 |
| 20260906111600 | 21 | 0 | 0.0 | 1.6 | 0.00 | 0.03 | 0.00 | 94 | 1013.1 |
| 20260906104555 | 21 | 0 | 0.0 | 1.6 | 0.00 | 0.03 | 0.00 | 94 | 1013.1 |
| 20260906103057 | 22 | 19 | 0.0 | 1.6 | 0.00 | 0.03 | 0.00 | 94 | 1012.9 |
| 20260906101605 | 22 | 0 | 0.0 | 1.6 | 0.00 | 0.03 | 0.00 | 94 | 1012.5 |
| 20260906100058 | 22 | 0 | 0.0 | 1.6 | 0.00 | 0.03 | 0.00 | 94 | 1012.1 |
| 20260906094556 | 22 | 286 | 0.0 | 1.6 | 0.00 | 0.03 | 0.00 | 94 | 1011.9 |
| 20260906093058 | 22 | 0 | 0.0 | 1.6 | 0.00 | 0.03 | 0.00 | 94 | 1012.0 |
| 20260906091604 | 22 | 0 | 0.0 | 1.6 | 0.00 | 0.03 | 0.00 | 94 | 1011.8 |
| 20260906090112 | 22 | 84 | 0.0 | 1.6 | 0.00 | 0.03 | 0.00 | 94 | 1011.8 |
| 20260906084602 | 22 | 0 | 0.0 | 0.0 | 0.00 | 0.03 | 0.00 | 94 | 1011.7 |
| 20260906083100 | 22 | 0 | 0.0 | 1.6 | 0.00 | 0.03 | 0.00 | 94 | 1011.9 |
| 20260906081600 | 22 | 0 | 0.0 | 0.0 | 0.00 | 0.03 | 0.00 | 94 | 1011.9 |
| 20260906080106 | 22 | 0 | 0.0 | 0.0 | 0.00 | 0.03 | 0.00 | 93 | 1011.8 |
| 20260906074558 | 22 | 0 | 0.0 | 0.0 | 0.00 | 0.03 | 0.00 | 93 | 1011.9 |
| 20260906073059 | 22 | 0 | 0.0 | 0.0 | 0.00 | 0.03 | 0.00 | 93 | 1012.1 |
| 20260906071601 | 22 | 0 | 0.0 | 1.6 | 0.00 | 0.03 | 0.00 | 93 | 1012.4 |
| 20260906064557 | 22 | 0 | 0.0 | 0.0 | 0.00 | 0.03 | 0.00 | 93 | 1012.6 |
| 20260906063105 | 22 | 0 | 0.0 | 0.0 | 0.00 | 0.03 | 0.00 | 93 | 1012.5 |
| 20260906061559 | 22 | 0 | 0.0 | 0.0 | 0.00 | 0.03 | 0.00 | 92 | 1012.5 |
| 20260906060151 | 22 | 0 | 0.0 | 0.0 | 0.00 | 0.03 | 0.00 | 92 | 1012.6 |
| 20260906054608 | 23 | 0 | 0.0 | 0.0 | 0.00 | 0.03 | 0.00 | 92 | 1012.8 |
| 20260906053056 | 23 | 0 | 0.0 | 0.0 | 0.00 | 0.03 | 0.00 | 91 | 1012.9 |
| 20260906051556 | 23 | 0 | 0.0 | 1.6 | 0.00 | 0.03 | 0.00 | 91 | 1012.8 |
| 20260906050115 | 23 | 0 | 0.0 | 1.6 | 0.00 | 0.03 | 0.00 | 90 | 1012.6 |
| 20260906044556 | 23 | 84 | 0.0 | 1.6 | 0.00 | 0.03 | 0.00 | 90 | 1012.8 |
| 20260906043112 | 23 | 84 | 0.0 | 1.6 | 0.00 | 0.03 | 0.00 | 91 | 1013.1 |
| 20260906041601 | 23 | 0 | 0.0 | 1.6 | 0.00 | 0.03 | 0.00 | 92 | 1013.5 |
| 20260906040109 | 23 | 0 | 0.0 | 1.6 | 0.00 | 0.03 | 0.00 | 92 | 1013.7 |
| 20260906034603 | 24 | 0 | 0.0 | 1.6 | 0.00 | 0.03 | 0.03 | 91 | 1013.9 |
| 20260906033101 | 24 | 80 | 0.0 | 4.8 | 0.00 | 0.03 | 0.03 | 91 | 1013.9 |
| 20260906031625 | 24 | 90 | 3.2 | 16.1 | 0.00 | 0.03 | 0.03 | 91 | 1014.1 |
| 20260906030055 | 25 | 49 | 3.2 | 8.0 | 0.00 | 0.03 | 0.03 | 92 | 1013.9 |
| 20260906024604 | 24 | 0 | 0.0 | 1.6 | 0.00 | 0.03 | 0.03 | 91 | 1013.1 |
| 20260906023115 | 25 | 355 | 0.0 | 1.6 | 0.00 | 0.03 | 0.03 | 91 | 1013.2 |
| 20260906021607 | 25 | 355 | 0.0 | 0.0 | 0.00 | 0.03 | 0.03 | 91 | 1013.1 |
| 20260906014552 | 24 | 0 | 0.0 | 1.6 | 0.00 | 0.03 | 0.03 | 91 | 1012.9 |
| 20260906013055 | 23 | 0 | 0.0 | 0.0 | 0.03 | 0.03 | 0.03 | 91 | 1013.2 |
| 20260906011605 | 23 | 0 | 0.0 | 1.6 | 0.03 | 0.03 | 0.03 | 92 | 1013.2 |
| 20260906010057 | 23 | 355 | 0.0 | 3.2 | 0.03 | 0.03 | 0.03 | 91 | 1013.0 |
| 20260906004603 | 23 | 0 | 0.0 | 1.6 | 0.03 | 0.03 | 0.03 | 91 | 1012.4 |
| 20260906003059 | 23 | 0 | 0.0 | 1.6 | 0.00 | 0.00 | 0.00 | 90 | 1013.1 |
| 20260906001554 | 23 | 0 | 0.0 | 3.2 | 0.00 | 0.00 | 0.00 | 90 | 1013.4 |
| 20260905234558 | 24 | 71 | 1.6 | 4.8 | 0.00 | 0.00 | 0.00 | 84 | 1013.3 |
| 20260905233058 | 26 | 42 | 4.8 | 19.3 | 0.00 | 0.00 | 0.00 | 73 | 1013.8 |
| 20260905231614 | 27 | 348 | 8.0 | 25.7 | 0.00 | 0.00 | 0.00 | 66 | 1013.5 |
| 20260905230104 | 29 | 218 | 0.0 | 4.8 | 0.00 | 0.00 | 0.00 | 85 | 1012.7 |
| 20260905224553 | 29 | 200 | 0.0 | 6.4 | 0.00 | 0.00 | 0.00 | 84 | 1012.4 |
| 20260905223100 | 30 | 0 | 0.0 | 3.2 | 0.00 | 0.00 | 0.00 | 83 | 1012.0 |
| 20260905221602 | 30 | 148 | 1.6 | 3.2 | 0.00 | 0.00 | 0.00 | 81 | 1011.9 |
| 20260905220056 | 30 | 259 | 0.0 | 4.8 | 0.00 | 0.00 | 0.00 | 80 | 1011.5 |
| 20260905214607 | 31 | 207 | 0.0 | 1.6 | 0.00 | 0.00 | 0.00 | 77 | 1011.2 |
| 20260905213055 | 31 | 137 | 1.6 | 6.4 | 0.00 | 0.00 | 0.00 | 76 | 1011.8 |
| 20260905211558 | 32 | 237 | 0.0 | 3.2 | 0.00 | 0.00 | 0.00 | 73 | 1011.8 |
| 20260905210108 | 34 | 119 | 1.6 | 6.4 | 0.00 | 0.00 | 0.00 | 68 | 1011.5 |
| 20260905204554 | 35 | 123 | 3.2 | 9.7 | 0.00 | 0.00 | 0.00 | 64 | 1011.6 |
| 20260905203058 | 35 | 169 | 1.6 | 4.8 | 0.00 | 0.00 | 0.00 | 64 | 1011.7 |
| 20260905201552 | 36 | 301 | 3.2 | 8.0 | 0.00 | 0.00 | 0.00 | 57 | 1011.7 |
| 20260905200129 | 36 | 252 | 1.6 | 6.4 | 0.00 | 0.00 | 0.00 | 57 | 1011.5 |
| 20260905194557 | 36 | 136 | 1.6 | 4.8 | 0.00 | 0.00 | 0.00 | 56 | 1011.8 |
| 20260905193056 | 36 | 156 | 1.6 | 6.4 | 0.00 | 0.00 | 0.00 | 58 | 1012.0 |
| 20260905191602 | 35 | 228 | 1.6 | 8.0 | 0.00 | 0.00 | 0.00 | 57 | 1012.5 |
| 20260905190104 | 35 | 15 | 1.6 | 9.7 | 0.00 | 0.00 | 0.00 | 58 | 1012.6 |
| 20260905184603 | 36 | 18 | 3.2 | 8.0 | 0.00 | 0.00 | 0.00 | 58 | 1013.2 |
| 20260905183105 | 35 | 140 | 1.6 | 6.4 | 0.00 | 0.00 | 0.00 | 58 | 1013.3 |
| 20260905181603 | 35 | 232 | 1.6 | 6.4 | 0.00 | 0.00 | 0.00 | 59 | 1013.4 |
| 20260905180114 | 34 | 257 | 1.6 | 6.4 | 0.00 | 0.00 | 0.00 | 59 | 1013.5 |
| 20260905174604 | 34 | 281 | 3.2 | 6.4 | 0.00 | 0.00 | 0.00 | 62 | 1013.7 |
| 20260905173124 | 33 | 259 | 1.6 | 9.7 | 0.00 | 0.00 | 0.00 | 62 | 1013.7 |
| 20260905171600 | 33 | 246 | 3.2 | 6.4 | 0.00 | 0.00 | 0.00 | 64 | 1013.8 |
| 20260905170106 | 33 | 250 | 3.2 | 8.0 | 0.00 | 0.00 | 0.00 | 65 | 1014.2 |
| 20260905164614 | 32 | 211 | 3.2 | 9.7 | 0.00 | 0.00 | 0.00 | 68 | 1014.4 |
| 20260905163059 | 32 | 288 | 3.2 | 8.0 | 0.00 | 0.00 | 0.00 | 68 | 1014.5 |
| 20260905161605 | 31 | 294 | 1.6 | 9.7 | 0.00 | 0.00 | 0.00 | 73 | 1014.7 |
| 20260905160107 | 31 | 237 | 1.6 | 12.9 | 0.00 | 0.00 | 0.00 | 72 | 1015.0 |
| 20260905154605 | 31 | 270 | 1.6 | 9.7 | 0.00 | 0.00 | 0.00 | 76 | 1015.3 |
| 20260905153057 | 30 | 232 | 4.8 | 8.0 | 0.00 | 0.00 | 0.00 | 76 | 1015.4 |
| 20260905151602 | 30 | 300 | 1.6 | 6.4 | 0.00 | 0.00 | 0.00 | 77 | 1015.5 |
| 20260905144601 | 29 | 283 | 3.2 | 11.3 | 0.00 | 0.00 | 0.00 | 80 | 1015.6 |
| 20260905143104 | 28 | 234 | 1.6 | 8.0 | 0.00 | 0.00 | 0.00 | 82 | 1015.8 |
| 20260905141559 | 28 | 277 | 3.2 | 11.3 | 0.00 | 0.00 | 0.00 | 84 | 1015.9 |
| 20260905140113 | 27 | 217 | 3.2 | 14.5 | 0.00 | 0.00 | 0.00 | 85 | 1015.9 |
| 20260905134606 | 27 | 260 | 1.6 | 6.4 | 0.00 | 0.00 | 0.00 | 87 | 1015.9 |
| 20260905133101 | 26 | 211 | 1.6 | 11.3 | 0.00 | 0.00 | 0.00 | 89 | 1015.9 |
| 20260905131600 | 26 | 219 | 3.2 | 11.3 | 0.00 | 0.00 | 0.00 | 91 | 1015.8 |
| 20260905124600 | 25 | 230 | 1.6 | 6.4 | 0.00 | 0.00 | 0.00 | 93 | 1015.9 |
| 20260905123105 | 25 | 259 | 1.6 | 8.0 | 0.00 | 0.00 | 0.00 | 94 | 1016.1 |
| 20260905121601 | 25 | 254 | 0.0 | 6.4 | 0.00 | 0.00 | 0.00 | 94 | 1015.8 |
| 20260905120106 | 24 | 225 | 0.0 | 6.4 | 0.00 | 0.00 | 0.00 | 94 | 1015.8 |
| 20260905114610 | 24 | 217 | 0.0 | 6.4 | 0.00 | 0.00 | 0.00 | 94 | 1015.7 |